Llanybydder, United Kingdom
Current Conditions -  °F | °C
As of 8:50 PM on Thursday 27 Nov 2014 (Local Time) from EGOP Reporting Station
Overcast Overcast  
Wind Chill: 10°   Ceiling: 1300
Heat Index: 10°   Visibility: 6mi
Dew Point:   Wind: 13mph
Humidity: 87%   Direction: 100°E
Pressure: 29.47"   Gusts: NA
Location:  52.07°N, 4.16°W
Report Text: EGOP 272050Z AUTO 10011KT 9999 // OVC013/// 10/08 Q0998
Loading
Personal Weather Stations






























Interactive Weather Map New forecast layout! Learn more

10-Day Weather Forecast

Advertisements
Track Severe Weather on mobile